createdAt,value
2022-11-29T06:02:01.985Z,33.22
2022-11-29T06:05:08.670Z,29.65
2022-11-29T06:08:09.890Z,28.48
2022-11-29T06:10:51.270Z,33.63
2022-11-29T06:13:45.000Z,31.10
2022-11-29T06:16:46.907Z,29.27
2022-11-29T06:19:48.463Z,30.13
2022-11-29T06:22:25.337Z,36.08
2022-11-29T06:25:21.233Z,40.38
2022-11-29T06:28:12.611Z,36.33
2022-11-29T06:31:03.232Z,32.85
2022-11-29T06:33:51.405Z,36.38
2022-11-29T06:36:24.854Z,30.92
2022-11-29T06:38:51.691Z,35.15
2022-11-29T06:44:14.077Z,39.28
2022-11-29T06:46:47.995Z,43.15
2022-11-29T06:49:27.737Z,40.58
2022-11-29T06:52:09.980Z,35.10
2022-11-29T06:55:09.536Z,37.15
2022-11-29T06:58:12.447Z,33.47
2022-11-29T07:00:54.096Z,33.80
2022-11-29T07:03:32.462Z,31.52
2022-11-29T07:06:21.338Z,35.30
2022-11-29T07:08:52.469Z,30.23
2022-11-29T07:11:19.929Z,33.05
2022-11-29T07:13:46.775Z,33.90
2022-11-29T07:16:35.363Z,36.97
2022-11-29T07:19:30.954Z,34.90
2022-11-29T07:22:49.102Z,28.33
2022-11-29T07:25:38.339Z,37.72
2022-11-29T07:28:23.684Z,39.15
2022-11-29T07:31:18.919Z,28.63
2022-11-29T07:34:03.315Z,36.90
2022-11-29T07:37:21.235Z,33.17
2022-11-29T07:39:50.925Z,32.20
2022-11-29T07:45:25.978Z,37.10
2022-11-29T07:47:52.987Z,36.43
2022-11-29T07:50:21.060Z,26.40
2022-11-29T07:52:48.678Z,32.72
2022-11-29T07:55:19.609Z,27.60
2022-11-29T07:57:47.002Z,25.98
2022-11-29T08:00:15.337Z,28.65
2022-11-29T08:02:42.155Z,24.67
2022-11-29T08:05:10.576Z,28.55
2022-11-29T08:07:38.775Z,27.35
2022-11-29T08:10:09.014Z,22.80
2022-11-29T08:12:35.885Z,23.98
2022-11-29T08:15:02.668Z,23.13
2022-11-29T08:17:29.549Z,25.42
2022-11-29T08:19:59.976Z,29.40
2022-11-29T08:22:29.866Z,29.95
2022-11-29T08:24:56.428Z,26.10
2022-11-29T08:27:23.732Z,32.08
2022-11-29T08:29:50.262Z,26.75
2022-11-29T08:32:17.809Z,28.73
2022-11-29T08:34:47.175Z,37.72
2022-11-29T08:37:14.589Z,29.98
2022-11-29T08:39:41.317Z,29.38
2022-11-29T08:42:08.412Z,34.42
2022-11-29T08:44:34.960Z,30.13
2022-11-29T08:47:20.977Z,37.88
2022-11-29T08:50:02.849Z,34.28
2022-11-29T08:52:54.311Z,30.30
2022-11-29T08:55:24.070Z,38.65
2022-11-29T09:00:19.605Z,38.00
2022-11-29T09:02:46.187Z,34.17
2022-11-29T09:05:13.425Z,30.05
2022-11-29T09:07:41.026Z,32.65
2022-11-29T09:10:08.845Z,33.10
2022-11-29T09:12:37.363Z,36.40
2022-11-29T09:15:06.782Z,35.25
2022-11-29T09:17:33.807Z,39.38
2022-11-29T09:20:00.466Z,39.15
2022-11-29T09:22:27.649Z,33.78
2022-11-29T09:24:54.971Z,39.65
2022-11-29T09:27:22.140Z,45.13
2022-11-29T09:29:48.726Z,42.63
2022-11-29T09:32:15.631Z,42.55
2022-11-29T09:34:42.458Z,40.08
2022-11-29T09:37:09.798Z,41.38
2022-11-29T09:39:36.330Z,45.22
2022-11-29T09:42:23.759Z,39.00
2022-11-29T09:45:04.033Z,37.97
2022-11-29T09:47:49.527Z,35.50
2022-11-29T09:50:33.634Z,31.75
2022-11-29T09:53:38.995Z,31.25
2022-11-29T09:56:22.337Z,34.42
2022-11-29T09:59:01.818Z,33.85
2022-11-29T10:01:34.642Z,43.30
2022-11-29T10:04:05.259Z,38.33
2022-11-29T10:06:48.739Z,31.25
2022-11-29T10:09:22.740Z,34.17
2022-11-29T10:12:11.763Z,29.88
2022-11-29T10:14:47.879Z,33.57
2022-11-29T10:17:32.779Z,33.40
2022-11-29T10:20:17.239Z,31.63
2022-11-29T10:22:49.558Z,33.88
2022-11-29T10:25:23.174Z,36.75
2022-11-29T10:27:49.833Z,31.73
2022-11-29T10:30:17.888Z,33.45
2022-11-29T10:32:47.328Z,29.48
2022-11-29T10:37:56.381Z,27.45
2022-11-29T10:40:35.446Z,34.45
2022-11-29T10:43:02.894Z,28.05
2022-11-29T10:45:46.121Z,34.72
2022-11-29T10:48:16.812Z,38.42
2022-11-29T10:50:46.058Z,37.83
2022-11-29T10:53:14.802Z,38.25
2022-11-29T10:56:16.394Z,39.25
2022-11-29T10:59:05.055Z,34.65
2022-11-29T11:01:37.046Z,37.55
2022-11-29T11:04:07.372Z,37.53
2022-11-29T11:06:45.446Z,39.70
2022-11-29T11:09:22.282Z,40.58
2022-11-29T11:11:55.158Z,41.67
2022-11-29T11:14:38.671Z,35.55
2022-11-29T11:17:16.178Z,41.40
2022-11-29T11:19:53.546Z,35.55
2022-11-29T11:22:23.279Z,36.72
2022-11-29T11:25:07.369Z,37.58
2022-11-29T11:27:40.038Z,43.65
2022-11-29T11:30:18.636Z,43.30
2022-11-29T11:33:08.737Z,34.70
2022-11-29T11:35:37.491Z,31.48
2022-11-29T11:38:04.179Z,32.70
2022-11-29T11:40:31.270Z,39.95
2022-11-29T11:43:01.570Z,37.75
2022-11-29T11:45:32.957Z,38.13
2022-11-29T11:48:04.587Z,35.88
2022-11-29T11:50:50.225Z,41.30
2022-11-29T11:53:28.935Z,31.38
2022-11-29T11:56:14.923Z,36.00
2022-11-29T11:58:44.425Z,39.15
2022-11-29T12:01:25.430Z,34.60
2022-11-29T12:04:03.449Z,34.75
2022-11-29T12:06:43.438Z,39.42
2022-11-29T12:12:00.705Z,36.95
2022-11-29T12:14:41.478Z,43.00
2022-11-29T12:17:34.530Z,38.75
2022-11-29T12:20:39.555Z,38.22
2022-11-29T12:23:12.941Z,39.08
2022-11-29T12:25:47.124Z,42.03
2022-11-29T12:28:20.274Z,37.47
2022-11-29T12:31:06.224Z,36.50
2022-11-29T12:34:00.069Z,38.35
2022-11-29T12:36:54.800Z,40.75
2022-11-29T12:39:37.491Z,35.10
2022-11-29T12:42:36.476Z,40.53
2022-11-29T12:45:23.232Z,38.57
2022-11-29T12:48:15.169Z,36.35
2022-11-29T12:51:12.577Z,36.88
2022-11-29T12:54:11.598Z,35.60
2022-11-29T12:56:59.876Z,43.72
2022-11-29T13:00:10.933Z,40.83
2022-11-29T13:02:49.984Z,35.15
2022-11-29T13:05:23.373Z,48.10
2022-11-29T13:08:05.472Z,38.40
2022-11-29T13:10:34.985Z,34.95
2022-11-29T13:13:15.722Z,40.63
2022-11-29T13:15:54.663Z,54.60
2022-11-29T13:18:34.576Z,43.90
2022-11-29T13:26:41.964Z,49.35
2022-11-29T13:29:16.090Z,51.45
2022-11-29T13:31:44.022Z,44.22
2022-11-29T13:34:41.484Z,54.33
2022-11-29T13:37:19.236Z,44.65
2022-11-29T13:40:24.494Z,46.58
2022-11-29T13:43:17.774Z,41.50
2022-11-29T13:46:04.651Z,47.53
2022-11-29T13:48:47.954Z,46.88
2022-11-29T13:51:34.304Z,46.75
2022-11-29T13:54:05.194Z,46.88
2022-11-29T13:56:42.705Z,39.58
2022-11-29T13:59:18.798Z,41.67
2022-11-29T14:01:50.209Z,40.08
2022-11-29T14:04:25.969Z,49.42
2022-11-29T14:07:19.951Z,44.70
2022-11-29T14:10:03.257Z,40.65
2022-11-29T14:12:39.767Z,41.88
2022-11-29T14:15:20.903Z,39.08
2022-11-29T14:17:58.229Z,44.42
2022-11-29T14:20:33.596Z,42.45
2022-11-29T14:23:06.909Z,43.88
2022-11-29T14:25:51.679Z,35.30
2022-11-29T14:28:22.545Z,41.97
2022-11-29T14:30:53.462Z,44.80
2022-11-29T14:33:46.785Z,36.72
2022-11-29T14:36:19.215Z,38.63
2022-11-29T14:39:02.346Z,43.92
2022-11-29T14:41:38.105Z,42.25
2022-11-29T14:44:28.321Z,41.00
2022-11-29T14:47:02.266Z,38.67
2022-11-29T14:49:30.213Z,37.92
2022-11-29T14:52:28.731Z,38.47
2022-11-29T14:54:58.299Z,35.70
2022-11-29T14:57:47.134Z,35.72
2022-11-29T15:00:19.550Z,43.72
2022-11-29T15:03:10.086Z,36.22
2022-11-29T15:05:56.526Z,38.38
2022-11-29T15:08:33.671Z,34.92
2022-11-29T15:11:13.696Z,41.53
2022-11-29T15:13:54.724Z,45.25
2022-11-29T15:16:27.061Z,43.67
2022-11-29T15:19:31.562Z,41.00
2022-11-29T15:22:14.196Z,40.30
2022-11-29T15:24:51.951Z,49.30
2022-11-29T15:27:18.991Z,42.97
2022-11-29T15:29:48.553Z,35.47
2022-11-29T15:32:22.466Z,41.95
2022-11-29T15:34:51.812Z,58.35
2022-11-29T15:40:18.072Z,43.65
2022-11-29T15:42:48.723Z,47.15
2022-11-29T15:45:24.698Z,48.80
2022-11-29T15:47:52.409Z,45.65
2022-11-29T15:50:33.315Z,42.90
2022-11-29T15:53:06.066Z,46.08
2022-11-29T15:55:33.617Z,41.75
2022-11-29T15:58:08.548Z,46.15
2022-11-29T16:00:36.299Z,31.85
2022-11-29T16:03:05.450Z,36.78
2022-11-29T16:05:37.562Z,38.35
2022-11-29T16:08:15.126Z,34.85
2022-11-29T16:10:47.374Z,48.95
2022-11-29T16:13:35.496Z,42.67
2022-11-29T16:16:22.456Z,45.75
2022-11-29T16:18:50.875Z,38.22
2022-11-29T16:21:32.158Z,38.42
2022-11-29T16:24:12.477Z,35.38
2022-11-29T16:26:43.303Z,39.05
2022-11-29T16:29:27.597Z,36.83
2022-11-29T16:31:54.674Z,42.03
2022-11-29T16:34:30.898Z,45.72
2022-11-29T16:37:07.042Z,38.30
2022-11-29T16:39:37.771Z,33.72
2022-11-29T16:42:07.420Z,40.78
2022-11-29T16:44:40.685Z,40.33
2022-11-29T16:47:21.912Z,33.13
2022-11-29T16:50:07.266Z,40.08
2022-11-29T16:52:34.380Z,41.75
2022-11-29T16:55:01.367Z,41.03
2022-11-29T16:57:28.837Z,44.38
2022-11-29T16:59:56.050Z,44.60
2022-11-29T17:02:22.693Z,40.55
2022-11-29T17:04:51.489Z,39.53
2022-11-29T17:07:26.311Z,37.92
2022-11-29T17:09:53.807Z,44.67
2022-11-29T17:12:20.331Z,40.60
2022-11-29T17:14:47.742Z,39.13
2022-11-29T17:17:16.072Z,39.28
2022-11-29T17:19:43.257Z,35.75
2022-11-29T17:22:09.865Z,41.38
2022-11-29T17:24:41.173Z,34.80
2022-11-29T17:27:11.416Z,35.45
2022-11-29T17:29:38.284Z,35.30
2022-11-29T17:32:05.675Z,34.30
2022-11-29T17:34:33.287Z,42.97
2022-11-29T17:37:01.038Z,32.55
2022-11-29T17:39:27.677Z,43.28
2022-11-29T17:41:54.870Z,34.30
2022-11-29T17:44:21.437Z,31.60
2022-11-29T17:46:48.676Z,33.63
2022-11-29T17:49:15.286Z,33.60
2022-11-29T17:51:57.701Z,29.23
2022-11-29T17:54:24.602Z,31.85
2022-11-29T17:56:52.202Z,33.83
2022-11-29T17:59:19.094Z,33.00
2022-11-29T18:01:47.551Z,33.25
2022-11-29T18:04:14.686Z,30.52
2022-11-29T18:06:42.011Z,34.45
2022-11-29T18:09:10.553Z,34.58
2022-11-29T18:11:47.515Z,35.30
2022-11-29T18:14:23.218Z,32.60
2022-11-29T18:16:51.079Z,30.08
2022-11-29T18:19:20.003Z,31.80
2022-11-29T18:21:48.121Z,34.35
2022-11-29T18:24:15.037Z,37.97
2022-11-29T18:26:42.307Z,32.50
2022-11-29T18:29:09.557Z,31.77
2022-11-29T18:31:38.852Z,26.33
2022-11-29T18:34:09.255Z,23.73
2022-11-29T18:36:38.772Z,26.67
2022-11-29T18:39:10.550Z,31.48
2022-11-29T18:41:38.289Z,30.65
2022-11-29T18:44:07.704Z,25.90
2022-11-29T18:46:37.445Z,35.47
2022-11-29T18:51:32.139Z,33.80
2022-11-29T18:53:59.253Z,31.90
2022-11-29T18:56:28.744Z,31.60
2022-11-29T18:58:59.716Z,26.45
2022-11-29T19:01:29.051Z,27.92
2022-11-29T19:03:58.381Z,32.97
2022-11-29T19:06:35.606Z,29.17
2022-11-29T19:09:06.981Z,27.58
2022-11-29T19:11:34.662Z,28.02
2022-11-29T19:14:03.921Z,27.05
2022-11-29T19:16:33.667Z,27.63
2022-11-29T19:19:01.179Z,22.45
2022-11-29T19:21:32.158Z,28.00
2022-11-29T19:24:01.087Z,27.80
2022-11-29T19:26:30.051Z,25.25
2022-11-29T19:28:57.264Z,31.98
2022-11-29T19:31:25.422Z,34.63
2022-11-29T19:33:52.679Z,30.52
2022-11-29T19:36:24.216Z,25.95
2022-11-29T19:38:53.777Z,25.40
2022-11-29T19:41:30.078Z,31.85
2022-11-29T19:43:58.908Z,23.63
2022-11-29T19:46:31.893Z,27.52
2022-11-29T19:48:59.907Z,26.60
2022-11-29T19:51:28.675Z,26.75
2022-11-29T19:54:00.723Z,25.00
2022-11-29T19:56:31.047Z,26.25
2022-11-29T19:58:59.645Z,21.63
2022-11-29T20:01:37.730Z,28.88
2022-11-29T20:04:07.462Z,29.30
2022-11-29T20:06:34.858Z,32.00
2022-11-29T20:09:02.136Z,27.52
2022-11-29T20:11:29.864Z,29.02
2022-11-29T20:13:59.129Z,28.77
2022-11-29T20:16:27.299Z,33.15
2022-11-29T20:18:54.659Z,33.53
2022-11-29T20:21:25.745Z,34.42
2022-11-29T20:24:03.379Z,31.95
2022-11-29T20:26:32.520Z,29.15
2022-11-29T20:28:59.781Z,36.72
2022-11-29T20:31:27.045Z,40.33
2022-11-29T20:33:57.377Z,33.65
2022-11-29T20:36:30.603Z,33.80
2022-11-29T20:39:24.761Z,33.40
2022-11-29T20:42:28.861Z,30.88
2022-11-29T20:44:58.687Z,33.03
2022-11-29T20:47:53.521Z,37.45
2022-11-29T20:50:23.987Z,31.48
2022-11-29T20:53:08.879Z,33.22
2022-11-29T20:55:44.887Z,28.60
2022-11-29T20:58:13.348Z,31.25
2022-11-29T21:00:40.343Z,33.40
2022-11-29T21:03:06.954Z,40.40
2022-11-29T21:05:33.820Z,40.35
2022-11-29T21:08:01.911Z,36.65
2022-11-29T21:10:28.499Z,42.20
2022-11-29T21:12:56.713Z,43.60
2022-11-29T21:15:23.552Z,40.45
2022-11-29T21:17:51.136Z,45.78
2022-11-29T21:20:21.775Z,36.95
2022-11-29T21:23:01.061Z,40.55
2022-11-29T21:25:36.822Z,45.45
2022-11-29T21:28:08.173Z,41.65
